sensor_id;sensor_type;location;lat;lon;timestamp;pressure;altitude;pressure_sealevel;temperature;humidity
56052;BME280;41919;42.648;23.384;2022-10-26T00:00:07;95026.66;;;17.04;57.67
56052;BME280;41919;42.648;23.384;2022-10-26T00:02:32;95024.00;;;17.04;57.41
56052;BME280;41919;42.648;23.384;2022-10-26T00:04:58;95020.09;;;17.07;57.50
56052;BME280;41919;42.648;23.384;2022-10-26T00:07:23;95021.38;;;17.04;57.37
56052;BME280;41919;42.648;23.384;2022-10-26T00:09:48;95028.53;;;16.92;57.64
56052;BME280;41919;42.648;23.384;2022-10-26T00:12:13;95027.47;;;16.93;57.83
56052;BME280;41919;42.648;23.384;2022-10-26T00:14:39;95026.53;;;16.99;57.64
56052;BME280;41919;42.648;23.384;2022-10-26T00:17:04;95021.50;;;16.97;57.58
56052;BME280;41919;42.648;23.384;2022-10-26T00:19:31;95027.84;;;16.84;58.21
56052;BME280;41919;42.648;23.384;2022-10-26T00:21:57;95031.38;;;16.90;57.96
56052;BME280;41919;42.648;23.384;2022-10-26T00:24:22;95025.19;;;16.84;58.20
56052;BME280;41919;42.648;23.384;2022-10-26T00:26:47;95028.06;;;16.83;57.81
56052;BME280;41919;42.648;23.384;2022-10-26T00:29:12;95021.97;;;16.82;57.69
56052;BME280;41919;42.648;23.384;2022-10-26T00:31:38;95030.44;;;16.73;58.25
56052;BME280;41919;42.648;23.384;2022-10-26T00:34:04;95031.69;;;16.58;58.27
56052;BME280;41919;42.648;23.384;2022-10-26T00:36:29;95030.69;;;16.59;58.31
56052;BME280;41919;42.648;23.384;2022-10-26T00:38:55;95029.41;;;16.62;58.15
56052;BME280;41919;42.648;23.384;2022-10-26T00:41:24;95027.91;;;16.66;58.20
56052;BME280;41919;42.648;23.384;2022-10-26T00:43:50;95021.50;;;16.62;57.94
56052;BME280;41919;42.648;23.384;2022-10-26T00:46:19;95026.69;;;16.57;57.99
56052;BME280;41919;42.648;23.384;2022-10-26T00:48:48;95024.94;;;16.62;58.23
56052;BME280;41919;42.648;23.384;2022-10-26T00:51:16;95017.00;;;16.62;58.10
56052;BME280;41919;42.648;23.384;2022-10-26T00:53:44;95018.63;;;16.52;58.44
56052;BME280;41919;42.648;23.384;2022-10-26T00:56:10;95014.94;;;16.53;58.38
56052;BME280;41919;42.648;23.384;2022-10-26T00:58:35;95019.44;;;16.52;58.20
56052;BME280;41919;42.648;23.384;2022-10-26T01:01:01;95015.06;;;16.58;58.04
56052;BME280;41919;42.648;23.384;2022-10-26T01:03:27;95007.50;;;16.50;58.42
56052;BME280;41919;42.648;23.384;2022-10-26T01:05:54;95013.38;;;16.52;58.28
56052;BME280;41919;42.648;23.384;2022-10-26T01:08:20;95007.16;;;16.58;58.02
56052;BME280;41919;42.648;23.384;2022-10-26T01:10:46;95013.00;;;16.60;58.02
56052;BME280;41919;42.648;23.384;2022-10-26T01:13:11;95006.47;;;16.51;58.01
56052;BME280;41919;42.648;23.384;2022-10-26T01:18:25;95007.03;;;16.53;58.40
56052;BME280;41919;42.648;23.384;2022-10-26T01:25:59;95014.50;;;16.56;58.60
56052;BME280;41919;42.648;23.384;2022-10-26T01:30:59;95018.63;;;16.63;58.25
56052;BME280;41919;42.648;23.384;2022-10-26T01:33:28;95015.44;;;16.50;58.83
56052;BME280;41919;42.648;23.384;2022-10-26T01:38:43;95015.31;;;16.44;58.86
56052;BME280;41919;42.648;23.384;2022-10-26T01:41:20;95012.31;;;16.41;59.19
56052;BME280;41919;42.648;23.384;2022-10-26T01:44:00;95010.59;;;16.46;59.15
56052;BME280;41919;42.648;23.384;2022-10-26T01:46:28;95005.66;;;16.50;59.09
56052;BME280;41919;42.648;23.384;2022-10-26T01:48:56;95010.16;;;16.50;59.14
56052;BME280;41919;42.648;23.384;2022-10-26T01:51:23;95011.75;;;16.51;59.14
56052;BME280;41919;42.648;23.384;2022-10-26T01:53:49;95017.22;;;16.25;57.14
56052;BME280;41919;42.648;23.384;2022-10-26T01:56:21;95012.16;;;16.00;57.38
56052;BME280;41919;42.648;23.384;2022-10-26T02:01:20;95007.63;;;15.28;59.38
56052;BME280;41919;42.648;23.384;2022-10-26T02:06:21;95013.00;;;14.85;61.01
56052;BME280;41919;42.648;23.384;2022-10-26T02:08:53;95017.34;;;14.73;61.29
56052;BME280;41919;42.648;23.384;2022-10-26T02:13:52;95011.38;;;14.65;60.79
56052;BME280;41919;42.648;23.384;2022-10-26T02:21:21;95035.75;;;14.47;61.12
56052;BME280;41919;42.648;23.384;2022-10-26T02:23:50;95025.84;;;14.49;61.49
56052;BME280;41919;42.648;23.384;2022-10-26T02:26:17;95025.03;;;14.49;62.67
56052;BME280;41919;42.648;23.384;2022-10-26T02:28:45;95031.53;;;14.46;64.56
56052;BME280;41919;42.648;23.384;2022-10-26T02:31:11;95027.75;;;14.42;65.19
56052;BME280;41919;42.648;23.384;2022-10-26T02:33:38;95029.34;;;14.43;65.64
56052;BME280;41919;42.648;23.384;2022-10-26T02:36:06;95028.16;;;14.39;65.44
56052;BME280;41919;42.648;23.384;2022-10-26T02:38:33;95039.19;;;14.23;66.99
56052;BME280;41919;42.648;23.384;2022-10-26T02:41:00;95039.13;;;13.79;66.01
56052;BME280;41919;42.648;23.384;2022-10-26T02:43:26;95040.00;;;13.66;66.08
56052;BME280;41919;42.648;23.384;2022-10-26T02:45:56;95037.22;;;13.55;67.00
56052;BME280;41919;42.648;23.384;2022-10-26T02:48:23;95032.19;;;13.53;68.20
56052;BME280;41919;42.648;23.384;2022-10-26T02:55:48;95045.53;;;12.86;71.26
56052;BME280;41919;42.648;23.384;2022-10-26T02:58:25;95044.75;;;12.72;72.27
56052;BME280;41919;42.648;23.384;2022-10-26T03:00:51;95043.16;;;12.71;73.66
56052;BME280;41919;42.648;23.384;2022-10-26T03:03:17;95044.97;;;12.58;74.21
56052;BME280;41919;42.648;23.384;2022-10-26T03:05:43;95050.22;;;12.64;74.12
56052;BME280;41919;42.648;23.384;2022-10-26T03:08:08;95051.63;;;12.53;75.72
56052;BME280;41919;42.648;23.384;2022-10-26T03:10:34;95055.66;;;12.49;76.58
56052;BME280;41919;42.648;23.384;2022-10-26T03:13:04;95056.88;;;12.47;76.48
56052;BME280;41919;42.648;23.384;2022-10-26T03:15:29;95058.09;;;12.38;77.54
56052;BME280;41919;42.648;23.384;2022-10-26T03:17:54;95054.84;;;12.42;77.50
56052;BME280;41919;42.648;23.384;2022-10-26T03:20:19;95051.22;;;12.36;77.90
56052;BME280;41919;42.648;23.384;2022-10-26T03:22:46;95057.47;;;12.42;77.57
56052;BME280;41919;42.648;23.384;2022-10-26T03:25:11;95071.78;;;12.60;77.19
56052;BME280;41919;42.648;23.384;2022-10-26T03:27:36;95071.16;;;12.71;76.25
56052;BME280;41919;42.648;23.384;2022-10-26T03:30:02;95071.38;;;12.76;76.25
56052;BME280;41919;42.648;23.384;2022-10-26T03:32:27;95066.09;;;12.89;75.92
56052;BME280;41919;42.648;23.384;2022-10-26T03:34:53;95072.56;;;12.93;75.38
56052;BME280;41919;42.648;23.384;2022-10-26T03:37:18;95077.16;;;13.05;74.37
56052;BME280;41919;42.648;23.384;2022-10-26T03:39:43;95075.75;;;13.16;73.87
56052;BME280;41919;42.648;23.384;2022-10-26T03:42:09;95077.56;;;13.02;74.83
56052;BME280;41919;42.648;23.384;2022-10-26T03:44:34;95081.03;;;12.82;75.62
56052;BME280;41919;42.648;23.384;2022-10-26T03:46:59;95076.25;;;12.66;75.71
56052;BME280;41919;42.648;23.384;2022-10-26T03:49:24;95076.41;;;12.84;75.30
56052;BME280;41919;42.648;23.384;2022-10-26T03:51:50;95073.34;;;13.01;74.01
56052;BME280;41919;42.648;23.384;2022-10-26T03:54:15;95067.47;;;13.12;73.16
56052;BME280;41919;42.648;23.384;2022-10-26T03:56:40;95069.66;;;13.22;73.15
56052;BME280;41919;42.648;23.384;2022-10-26T03:59:05;95076.09;;;13.32;73.03
56052;BME280;41919;42.648;23.384;2022-10-26T04:01:31;95074.06;;;13.41;72.87
56052;BME280;41919;42.648;23.384;2022-10-26T04:03:56;95074.44;;;13.38;73.19
56052;BME280;41919;42.648;23.384;2022-10-26T04:06:21;95074.06;;;13.34;73.50
56052;BME280;41919;42.648;23.384;2022-10-26T04:08:47;95074.44;;;13.45;73.03
56052;BME280;41919;42.648;23.384;2022-10-26T04:11:12;95080.03;;;13.55;72.62
56052;BME280;41919;42.648;23.384;2022-10-26T04:13:37;95079.19;;;13.61;72.10
56052;BME280;41919;42.648;23.384;2022-10-26T04:16:02;95085.66;;;13.65;71.24
56052;BME280;41919;42.648;23.384;2022-10-26T04:18:28;95082.47;;;13.50;67.96
56052;BME280;41919;42.648;23.384;2022-10-26T04:20:53;95080.53;;;13.32;69.51
56052;BME280;41919;42.648;23.384;2022-10-26T04:23:18;95081.81;;;12.96;70.01
56052;BME280;41919;42.648;23.384;2022-10-26T04:25:44;95089.13;;;12.74;71.02
56052;BME280;41919;42.648;23.384;2022-10-26T04:28:10;95081.47;;;12.46;72.08
56052;BME280;41919;42.648;23.384;2022-10-26T04:30:35;95087.13;;;12.36;72.53
56052;BME280;41919;42.648;23.384;2022-10-26T04:33:02;95083.91;;;12.41;74.13
56052;BME280;41919;42.648;23.384;2022-10-26T04:35:27;95082.69;;;12.50;73.31
56052;BME280;41919;42.648;23.384;2022-10-26T04:37:56;95072.38;;;12.62;74.50
56052;BME280;41919;42.648;23.384;2022-10-26T04:40:21;95083.88;;;12.74;74.70
56052;BME280;41919;42.648;23.384;2022-10-26T04:42:46;95089.91;;;12.88;74.50
56052;BME280;41919;42.648;23.384;2022-10-26T04:45:12;95090.28;;;13.05;74.69
56052;BME280;41919;42.648;23.384;2022-10-26T04:47:38;95083.59;;;13.16;73.84
56052;BME280;41919;42.648;23.384;2022-10-26T04:50:03;95086.59;;;13.19;71.37
56052;BME280;41919;42.648;23.384;2022-10-26T04:52:29;95092.69;;;13.20;70.61
56052;BME280;41919;42.648;23.384;2022-10-26T04:54:54;95093.88;;;13.24;68.99
56052;BME280;41919;42.648;23.384;2022-10-26T04:57:19;95099.31;;;13.22;68.04
56052;BME280;41919;42.648;23.384;2022-10-26T04:59:45;95109.63;;;13.17;67.74
56052;BME280;41919;42.648;23.384;2022-10-26T05:02:10;95109.25;;;13.07;68.66
56052;BME280;41919;42.648;23.384;2022-10-26T05:04:35;95112.69;;;13.07;68.48
56052;BME280;41919;42.648;23.384;2022-10-26T05:07:00;95112.91;;;12.99;69.06
56052;BME280;41919;42.648;23.384;2022-10-26T05:09:26;95114.06;;;13.23;69.25
56052;BME280;41919;42.648;23.384;2022-10-26T05:11:51;95103.47;;;13.57;69.02
56052;BME280;41919;42.648;23.384;2022-10-26T05:14:16;95106.19;;;13.82;68.54
56052;BME280;41919;42.648;23.384;2022-10-26T05:16:41;95104.88;;;13.98;68.72
56052;BME280;41919;42.648;23.384;2022-10-26T05:19:08;95101.78;;;14.39;66.79
56052;BME280;41919;42.648;23.384;2022-10-26T05:21:34;95106.47;;;14.87;65.00
56052;BME280;41919;42.648;23.384;2022-10-26T05:23:59;95109.28;;;15.29;63.21
56052;BME280;41919;42.648;23.384;2022-10-26T05:26:24;95110.19;;;15.79;61.73
56052;BME280;41919;42.648;23.384;2022-10-26T05:28:50;95106.31;;;16.23;58.72
56052;BME280;41919;42.648;23.384;2022-10-26T05:31:15;95111.75;;;16.40;57.54
56052;BME280;41919;42.648;23.384;2022-10-26T05:33:40;95117.63;;;16.78;56.47
56052;BME280;41919;42.648;23.384;2022-10-26T05:36:06;95123.22;;;16.34;58.19
56052;BME280;41919;42.648;23.384;2022-10-26T05:38:31;95130.91;;;16.36;57.31
56052;BME280;41919;42.648;23.384;2022-10-26T05:40:56;95132.28;;;17.04;55.46
56052;BME280;41919;42.648;23.384;2022-10-26T05:43:23;95136.84;;;17.44;53.69
56052;BME280;41919;42.648;23.384;2022-10-26T05:45:49;95145.09;;;17.59;52.58
56052;BME280;41919;42.648;23.384;2022-10-26T05:48:15;95145.19;;;17.64;51.98
56052;BME280;41919;42.648;23.384;2022-10-26T05:50:40;95144.63;;;17.62;51.96
56052;BME280;41919;42.648;23.384;2022-10-26T05:53:05;95136.69;;;18.60;49.47
56052;BME280;41919;42.648;23.384;2022-10-26T05:55:31;95143.81;;;19.28;47.47
56052;BME280;41919;42.648;23.384;2022-10-26T05:57:56;95148.31;;;19.88;46.11
56052;BME280;41919;42.648;23.384;2022-10-26T06:00:23;95147.31;;;20.66;44.48
56052;BME280;41919;42.648;23.384;2022-10-26T06:05:34;95151.56;;;21.89;41.48
56052;BME280;41919;42.648;23.384;2022-10-26T06:08:01;95145.97;;;23.05;39.60
56052;BME280;41919;42.648;23.384;2022-10-26T06:10:27;95146.97;;;23.35;37.74
56052;BME280;41919;42.648;23.384;2022-10-26T06:12:52;95151.22;;;23.41;37.34
56052;BME280;41919;42.648;23.384;2022-10-26T06:15:18;95152.22;;;23.76;36.86
56052;BME280;41919;42.648;23.384;2022-10-26T06:25:23;95160.47;;;25.24;34.51
56052;BME280;41919;42.648;23.384;2022-10-26T06:27:57;95155.34;;;26.05;32.78
56052;BME280;41919;42.648;23.384;2022-10-26T06:30:27;95150.94;;;27.09;31.56
56052;BME280;41919;42.648;23.384;2022-10-26T06:32:53;95157.13;;;27.10;31.12
56052;BME280;41919;42.648;23.384;2022-10-26T06:38:06;95153.16;;;28.09;29.98
56052;BME280;41919;42.648;23.384;2022-10-26T06:40:34;95156.97;;;29.18;28.75
56052;BME280;41919;42.648;23.384;2022-10-26T06:43:00;95150.94;;;30.15;27.16
56052;BME280;41919;42.648;23.384;2022-10-26T06:45:26;95159.00;;;30.90;26.07
56052;BME280;41919;42.648;23.384;2022-10-26T06:48:25;95163.25;;;31.17;25.66
56052;BME280;41919;42.648;23.384;2022-10-26T06:50:50;95162.41;;;31.51;25.08
56052;BME280;41919;42.648;23.384;2022-10-26T06:53:24;95152.69;;;31.97;24.59
56052;BME280;41919;42.648;23.384;2022-10-26T06:55:51;95156.47;;;32.98;23.42
56052;BME280;41919;42.648;23.384;2022-10-26T06:58:17;95160.06;;;33.56;22.29
56052;BME280;41919;42.648;23.384;2022-10-26T07:00:43;95163.97;;;34.05;22.19
56052;BME280;41919;42.648;23.384;2022-10-26T07:03:09;95165.47;;;34.02;21.52
56052;BME280;41919;42.648;23.384;2022-10-26T07:05:34;95166.16;;;34.24;21.41
56052;BME280;41919;42.648;23.384;2022-10-26T07:07:59;95164.66;;;34.26;21.42
56052;BME280;41919;42.648;23.384;2022-10-26T07:10:25;95174.34;;;34.52;21.06
56052;BME280;41919;42.648;23.384;2022-10-26T07:12:50;95165.13;;;34.41;20.89
56052;BME280;41919;42.648;23.384;2022-10-26T07:15:15;95169.84;;;34.56;20.78
56052;BME280;41919;42.648;23.384;2022-10-26T07:17:44;95171.13;;;35.15;20.39
56052;BME280;41919;42.648;23.384;2022-10-26T07:20:10;95170.56;;;35.50;19.66
56052;BME280;41919;42.648;23.384;2022-10-26T07:22:36;95173.09;;;35.59;20.23
56052;BME280;41919;42.648;23.384;2022-10-26T07:25:01;95169.03;;;35.81;19.82
56052;BME280;41919;42.648;23.384;2022-10-26T07:27:27;95161.38;;;36.02;19.40
56052;BME280;41919;42.648;23.384;2022-10-26T07:29:52;95169.50;;;36.34;19.49
56052;BME280;41919;42.648;23.384;2022-10-26T07:32:17;95160.66;;;36.73;19.22
56052;BME280;41919;42.648;23.384;2022-10-26T07:34:43;95155.81;;;37.21;18.35
56052;BME280;41919;42.648;23.384;2022-10-26T07:37:08;95160.66;;;37.31;18.03
56052;BME280;41919;42.648;23.384;2022-10-26T07:39:33;95154.50;;;37.34;18.28
56052;BME280;41919;42.648;23.384;2022-10-26T07:41:59;95153.09;;;37.21;18.29
56052;BME280;41919;42.648;23.384;2022-10-26T07:44:24;95160.91;;;37.65;18.13
56052;BME280;41919;42.648;23.384;2022-10-26T07:46:50;95154.94;;;38.05;17.36
56052;BME280;41919;42.648;23.384;2022-10-26T07:49:15;95144.94;;;38.67;17.08
56052;BME280;41919;42.648;23.384;2022-10-26T07:51:40;95145.66;;;38.94;16.80
56052;BME280;41919;42.648;23.384;2022-10-26T07:54:06;95148.13;;;39.02;16.69
56052;BME280;41919;42.648;23.384;2022-10-26T07:56:31;95152.91;;;38.25;17.22
56052;BME280;41919;42.648;23.384;2022-10-26T07:58:56;95148.88;;;38.99;16.77
56052;BME280;41919;42.648;23.384;2022-10-26T08:01:22;95153.47;;;39.29;16.38
56052;BME280;41919;42.648;23.384;2022-10-26T08:03:50;95147.09;;;39.89;16.08
56052;BME280;41919;42.648;23.384;2022-10-26T08:06:15;95151.38;;;40.42;15.45
56052;BME280;41919;42.648;23.384;2022-10-26T08:08:40;95152.63;;;40.00;15.16
56052;BME280;41919;42.648;23.384;2022-10-26T08:11:06;95152.38;;;39.75;15.02
56052;BME280;41919;42.648;23.384;2022-10-26T08:13:31;95148.63;;;39.90;15.27
56052;BME280;41919;42.648;23.384;2022-10-26T08:16:00;95153.63;;;39.85;15.22
56052;BME280;41919;42.648;23.384;2022-10-26T08:18:26;95150.78;;;39.70;15.40
56052;BME280;41919;42.648;23.384;2022-10-26T08:20:51;95144.63;;;39.39;15.26
56052;BME280;41919;42.648;23.384;2022-10-26T08:23:16;95154.63;;;39.25;15.84
56052;BME280;41919;42.648;23.384;2022-10-26T08:25:42;95149.19;;;38.64;16.25
56052;BME280;41919;42.648;23.384;2022-10-26T08:28:07;95149.88;;;38.88;16.15
56052;BME280;41919;42.648;23.384;2022-10-26T08:30:32;95145.66;;;35.64;19.07
56052;BME280;41919;42.648;23.384;2022-10-26T08:33:02;95156.00;;;32.62;22.53
56052;BME280;41919;42.648;23.384;2022-10-26T08:35:27;95148.94;;;33.25;22.09
56052;BME280;41919;42.648;23.384;2022-10-26T08:37:53;95142.28;;;33.34;21.89
56052;BME280;41919;42.648;23.384;2022-10-26T08:40:18;95147.94;;;33.87;21.19
56052;BME280;41919;42.648;23.384;2022-10-26T08:42:47;95147.94;;;33.87;21.38
56052;BME280;41919;42.648;23.384;2022-10-26T08:47:45;95136.88;;;33.34;21.59
56052;BME280;41919;42.648;23.384;2022-10-26T08:50:30;95145.25;;;33.54;21.71
56052;BME280;41919;42.648;23.384;2022-10-26T08:52:57;95149.06;;;33.07;21.59
56052;BME280;41919;42.648;23.384;2022-10-26T08:55:32;95149.38;;;32.72;22.70
56052;BME280;41919;42.648;23.384;2022-10-26T08:57:59;95160.81;;;32.57;22.72
56052;BME280;41919;42.648;23.384;2022-10-26T09:00:26;95151.38;;;32.63;22.07
56052;BME280;41919;42.648;23.384;2022-10-26T09:02:52;95150.88;;;32.40;22.77
56052;BME280;41919;42.648;23.384;2022-10-26T09:05:21;95156.56;;;30.62;24.93
56052;BME280;41919;42.648;23.384;2022-10-26T09:15:32;95155.25;;;28.99;27.42
56052;BME280;41919;42.648;23.384;2022-10-26T09:18:09;95153.25;;;29.99;25.54
56052;BME280;41919;42.648;23.384;2022-10-26T09:20:46;95156.38;;;30.32;25.08
56052;BME280;41919;42.648;23.384;2022-10-26T09:25:39;95150.41;;;28.51;26.58
56052;BME280;41919;42.648;23.384;2022-10-26T09:28:06;95146.88;;;28.28;27.60
56052;BME280;41919;42.648;23.384;2022-10-26T09:30:35;95147.78;;;28.96;26.60
56052;BME280;41919;42.648;23.384;2022-10-26T09:33:03;95154.56;;;29.39;25.45
56052;BME280;41919;42.648;23.384;2022-10-26T09:35:38;95152.31;;;29.63;25.32
56052;BME280;41919;42.648;23.384;2022-10-26T09:38:13;95144.00;;;29.20;26.20
56052;BME280;41919;42.648;23.384;2022-10-26T09:46:30;95156.50;;;26.80;30.41
56052;BME280;41919;42.648;23.384;2022-10-26T09:49:00;95155.44;;;26.62;30.36
56052;BME280;41919;42.648;23.384;2022-10-26T09:51:28;95144.31;;;26.50;30.55
56052;BME280;41919;42.648;23.384;2022-10-26T09:53:55;95142.81;;;26.63;30.68
56052;BME280;41919;42.648;23.384;2022-10-26T09:56:21;95143.97;;;26.75;29.84
56052;BME280;41919;42.648;23.384;2022-10-26T09:58:53;95148.22;;;26.95;29.40
56052;BME280;41919;42.648;23.384;2022-10-26T10:06:36;95133.97;;;26.81;29.80
56052;BME280;41919;42.648;23.384;2022-10-26T10:09:15;95138.59;;;26.37;30.10
56052;BME280;41919;42.648;23.384;2022-10-26T10:11:54;95131.41;;;25.90;30.37
56052;BME280;41919;42.648;23.384;2022-10-26T10:14:30;95126.81;;;25.71;30.93
56052;BME280;41919;42.648;23.384;2022-10-26T10:16:57;95127.50;;;25.58;30.72
56052;BME280;41919;42.648;23.384;2022-10-26T10:21:50;95126.00;;;25.22;31.88
56052;BME280;41919;42.648;23.384;2022-10-26T10:24:28;95124.03;;;25.33;31.37
56052;BME280;41919;42.648;23.384;2022-10-26T10:29:26;95113.44;;;25.18;31.60
56052;BME280;41919;42.648;23.384;2022-10-26T10:31:55;95122.13;;;24.70;32.15
56052;BME280;41919;42.648;23.384;2022-10-26T10:34:21;95119.31;;;24.46;32.70
56052;BME280;41919;42.648;23.384;2022-10-26T10:36:47;95112.19;;;24.36;33.01
56052;BME280;41919;42.648;23.384;2022-10-26T10:39:30;95114.84;;;24.36;33.22
56052;BME280;41919;42.648;23.384;2022-10-26T10:41:57;95111.13;;;23.87;33.55
56052;BME280;41919;42.648;23.384;2022-10-26T10:44:23;95102.31;;;23.72;33.85
56052;BME280;41919;42.648;23.384;2022-10-26T10:46:58;95103.47;;;23.55;33.76
56052;BME280;41919;42.648;23.384;2022-10-26T10:49:24;95108.09;;;23.19;34.38
56052;BME280;41919;42.648;23.384;2022-10-26T10:51:51;95101.13;;;23.38;34.50
56052;BME280;41919;42.648;23.384;2022-10-26T10:56:46;95092.06;;;23.29;34.52
56052;BME280;41919;42.648;23.384;2022-10-26T10:59:32;95097.69;;;23.22;35.19
56052;BME280;41919;42.648;23.384;2022-10-26T11:06:58;95077.41;;;23.26;35.01
56052;BME280;41919;42.648;23.384;2022-10-26T11:09:26;95085.31;;;23.52;35.12
56052;BME280;41919;42.648;23.384;2022-10-26T11:12:03;95075.50;;;23.37;35.67
56052;BME280;41919;42.648;23.384;2022-10-26T11:14:41;95074.44;;;23.43;35.64
56052;BME280;41919;42.648;23.384;2022-10-26T11:17:18;95072.03;;;23.37;35.46
56052;BME280;41919;42.648;23.384;2022-10-26T11:22:12;95078.38;;;23.61;35.46
56052;BME280;41919;42.648;23.384;2022-10-26T11:24:43;95070.63;;;23.55;35.67
56052;BME280;41919;42.648;23.384;2022-10-26T11:27:16;95063.25;;;23.26;36.07
56052;BME280;41919;42.648;23.384;2022-10-26T11:29:52;95069.41;;;23.26;36.22
56052;BME280;41919;42.648;23.384;2022-10-26T11:32:23;95076.81;;;23.45;36.09
56052;BME280;41919;42.648;23.384;2022-10-26T11:34:52;95070.41;;;23.46;36.09
56052;BME280;41919;42.648;23.384;2022-10-26T11:37:24;95071.81;;;23.28;35.98
56052;BME280;41919;42.648;23.384;2022-10-26T11:40:03;95064.56;;;23.39;36.08
56052;BME280;41919;42.648;23.384;2022-10-26T11:42:39;95072.25;;;23.56;35.68
56052;BME280;41919;42.648;23.384;2022-10-26T11:47:45;95053.69;;;23.30;35.79
56052;BME280;41919;42.648;23.384;2022-10-26T11:55:03;95058.50;;;22.97;36.00
56052;BME280;41919;42.648;23.384;2022-10-26T11:57:32;95058.50;;;23.02;35.79
56052;BME280;41919;42.648;23.384;2022-10-26T12:00:00;95054.81;;;22.83;36.22
56052;BME280;41919;42.648;23.384;2022-10-26T12:02:26;95045.72;;;23.09;36.18
56052;BME280;41919;42.648;23.384;2022-10-26T12:07:28;95053.09;;;23.38;35.15
56052;BME280;41919;42.648;23.384;2022-10-26T12:09:54;95056.03;;;23.37;35.00
56052;BME280;41919;42.648;23.384;2022-10-26T12:12:22;95055.81;;;23.28;34.81
56052;BME280;41919;42.648;23.384;2022-10-26T12:14:55;95048.34;;;23.20;34.80
56052;BME280;41919;42.648;23.384;2022-10-26T12:19:53;95039.91;;;22.77;34.60
56052;BME280;41919;42.648;23.384;2022-10-26T12:22:20;95047.03;;;23.02;34.71
56052;BME280;41919;42.648;23.384;2022-10-26T12:25:32;95052.63;;;23.16;34.34
56052;BME280;41919;42.648;23.384;2022-10-26T12:37:53;95044.16;;;23.03;32.47
56052;BME280;41919;42.648;23.384;2022-10-26T12:42:56;95038.25;;;23.17;32.04
56052;BME280;41919;42.648;23.384;2022-10-26T12:45:22;95035.28;;;23.18;31.62
56052;BME280;41919;42.648;23.384;2022-10-26T12:55:16;95043.88;;;22.79;31.33
56052;BME280;41919;42.648;23.384;2022-10-26T12:57:54;95048.66;;;22.93;31.26
56052;BME280;41919;42.648;23.384;2022-10-26T13:00:24;95043.59;;;23.06;31.28
56052;BME280;41919;42.648;23.384;2022-10-26T13:07:49;95042.75;;;23.16;30.97
56052;BME280;41919;42.648;23.384;2022-10-26T13:13:17;95041.72;;;23.17;30.64
56052;BME280;41919;42.648;23.384;2022-10-26T13:18:00;95049.16;;;23.20;30.88
56052;BME280;41919;42.648;23.384;2022-10-26T13:20:31;95051.06;;;23.15;30.57
56052;BME280;41919;42.648;23.384;2022-10-26T13:22:58;95048.34;;;23.25;31.21
56052;BME280;41919;42.648;23.384;2022-10-26T13:25:24;95053.47;;;23.11;30.72
56052;BME280;41919;42.648;23.384;2022-10-26T13:27:58;95048.91;;;23.12;30.27
56052;BME280;41919;42.648;23.384;2022-10-26T13:32:51;95051.59;;;22.91;29.57
56052;BME280;41919;42.648;23.384;2022-10-26T13:35:17;95060.09;;;22.93;29.71
56052;BME280;41919;42.648;23.384;2022-10-26T13:37:44;95059.34;;;22.82;29.36
56052;BME280;41919;42.648;23.384;2022-10-26T13:40:12;95061.22;;;22.77;28.96
56052;BME280;41919;42.648;23.384;2022-10-26T13:42:44;95065.22;;;22.69;28.82
56052;BME280;41919;42.648;23.384;2022-10-26T13:45:12;95062.28;;;22.60;28.85
56052;BME280;41919;42.648;23.384;2022-10-26T13:50:24;95064.97;;;22.55;29.14
56052;BME280;41919;42.648;23.384;2022-10-26T13:52:51;95067.88;;;22.38;29.10
56052;BME280;41919;42.648;23.384;2022-10-26T13:55:35;95060.94;;;22.52;28.93
56052;BME280;41919;42.648;23.384;2022-10-26T14:00:27;95074.53;;;22.41;28.18
56052;BME280;41919;42.648;23.384;2022-10-26T14:02:52;95078.22;;;22.29;28.33
56052;BME280;41919;42.648;23.384;2022-10-26T14:05:18;95077.41;;;22.19;28.20
56052;BME280;41919;42.648;23.384;2022-10-26T14:07:54;95083.28;;;22.26;28.54
56052;BME280;41919;42.648;23.384;2022-10-26T14:10:22;95081.19;;;22.38;28.37
56052;BME280;41919;42.648;23.384;2022-10-26T14:12:48;95084.63;;;22.39;28.78
56052;BME280;41919;42.648;23.384;2022-10-26T14:15:14;95081.69;;;22.45;28.41
56052;BME280;41919;42.648;23.384;2022-10-26T14:17:40;95080.91;;;22.35;28.51
56052;BME280;41919;42.648;23.384;2022-10-26T14:20:05;95079.31;;;22.34;28.45
56052;BME280;41919;42.648;23.384;2022-10-26T14:22:31;95080.38;;;22.27;28.62
56052;BME280;41919;42.648;23.384;2022-10-26T14:24:57;95081.94;;;22.23;29.10
56052;BME280;41919;42.648;23.384;2022-10-26T14:27:24;95086.47;;;22.28;28.55
56052;BME280;41919;42.648;23.384;2022-10-26T14:29:53;95082.50;;;22.25;28.74
56052;BME280;41919;42.648;23.384;2022-10-26T14:32:25;95082.97;;;22.22;28.82
56052;BME280;41919;42.648;23.384;2022-10-26T14:34:51;95079.03;;;22.25;29.99
56052;BME280;41919;42.648;23.384;2022-10-26T14:38:17;95082.19;;;22.22;30.37
56052;BME280;41919;42.648;23.384;2022-10-26T14:40:18;95081.94;;;22.23;30.98
56052;BME280;41919;42.648;23.384;2022-10-26T14:42:44;95082.97;;;22.22;30.94
56052;BME280;41919;42.648;23.384;2022-10-26T14:47:45;95087.22;;;22.03;30.05
56052;BME280;41919;42.648;23.384;2022-10-26T14:50:17;95090.13;;;22.01;29.81
56052;BME280;41919;42.648;23.384;2022-10-26T14:52:47;95096.50;;;21.90;30.31
56052;BME280;41919;42.648;23.384;2022-10-26T14:55:13;95094.03;;;21.78;30.50
56052;BME280;41919;42.648;23.384;2022-10-26T14:57:40;95095.88;;;21.72;30.70
56052;BME280;41919;42.648;23.384;2022-10-26T15:00:13;95097.72;;;21.62;30.81
56052;BME280;41919;42.648;23.384;2022-10-26T15:02:42;95096.06;;;21.50;31.01
56052;BME280;41919;42.648;23.384;2022-10-26T15:07:44;95087.16;;;21.29;30.99
56052;BME280;41919;42.648;23.384;2022-10-26T15:12:53;95100.06;;;21.10;31.85